createdAt,value
2023-01-06T00:04:23.344Z,2.87
2023-01-06T00:09:27.059Z,2.57
2023-01-06T00:14:31.846Z,1.83
2023-01-06T00:19:35.258Z,2.47
2023-01-06T00:24:38.708Z,2.77
2023-01-06T00:29:43.446Z,2.97
2023-01-06T00:34:47.131Z,2.40
2023-01-06T00:39:50.487Z,2.37
2023-01-06T00:44:55.373Z,2.47
2023-01-06T00:49:58.676Z,3.00
2023-01-06T00:55:02.450Z,2.00
2023-01-06T01:00:09.799Z,2.27
2023-01-06T01:05:13.649Z,2.67
2023-01-06T01:10:17.221Z,2.47
2023-01-06T01:15:22.798Z,2.70
2023-01-06T01:20:26.106Z,2.43
2023-01-06T01:25:29.592Z,2.40
2023-01-06T01:30:34.435Z,2.73
2023-01-06T01:35:37.776Z,1.93
2023-01-06T01:40:47.936Z,2.30
2023-01-06T01:45:55.426Z,2.20
2023-01-06T01:51:02.584Z,2.00
2023-01-06T01:56:09.650Z,2.80
2023-01-06T02:01:14.879Z,2.73
2023-01-06T02:06:21.440Z,2.13
2023-01-06T02:11:25.613Z,1.80
2023-01-06T02:16:40.475Z,2.60
2023-01-06T02:22:04.251Z,2.50
2023-01-06T02:27:34.670Z,2.03
2023-01-06T02:32:47.445Z,2.40
2023-01-06T02:38:03.423Z,2.22
2023-01-06T02:43:16.409Z,2.50
2023-01-06T02:48:28.660Z,2.58
2023-01-06T02:53:40.800Z,1.67
2023-01-06T02:58:52.279Z,2.90
2023-01-06T03:04:01.552Z,2.83
2023-01-06T03:09:06.897Z,2.13
2023-01-06T03:14:15.724Z,2.07
2023-01-06T03:19:20.744Z,1.90
2023-01-06T03:24:24.246Z,2.30
2023-01-06T03:29:27.815Z,2.43
2023-01-06T03:34:45.150Z,2.00
2023-01-06T03:39:57.020Z,1.73
2023-01-06T03:45:11.454Z,1.93
2023-01-06T03:50:22.758Z,3.20
2023-01-06T03:55:32.032Z,2.40
2023-01-06T04:00:38.292Z,2.47
2023-01-06T04:05:43.375Z,2.80
2023-01-06T04:10:46.732Z,2.80
2023-01-06T04:15:50.071Z,1.83
2023-01-06T04:20:55.037Z,1.93
2023-01-06T04:25:58.414Z,2.30
2023-01-06T04:31:02.987Z,1.83
2023-01-06T04:36:10.308Z,2.40
2023-01-06T04:41:13.657Z,2.33
2023-01-06T04:46:17.169Z,2.40
2023-01-06T04:51:21.999Z,2.27
2023-01-06T04:56:26.794Z,2.50
2023-01-06T05:01:30.578Z,3.10
2023-01-06T05:06:35.405Z,3.00
2023-01-06T05:11:39.426Z,2.90
2023-01-06T05:16:42.829Z,3.63
2023-01-06T05:21:47.708Z,2.77
2023-01-06T05:26:51.076Z,2.23
2023-01-06T05:31:54.551Z,2.93
2023-01-06T05:36:59.511Z,3.23
2023-01-06T05:42:02.988Z,2.53
2023-01-06T05:47:06.554Z,2.80
2023-01-06T05:52:11.420Z,3.73
2023-01-06T05:57:14.995Z,2.73
2023-01-06T06:02:18.440Z,2.80
2023-01-06T06:07:23.614Z,3.40
2023-01-06T06:12:27.012Z,3.00
2023-01-06T06:17:30.582Z,2.90
2023-01-06T06:22:35.325Z,2.73
2023-01-06T06:27:39.638Z,2.67
2023-01-06T06:32:42.935Z,3.23
2023-01-06T06:37:47.862Z,3.10
2023-01-06T06:42:53.429Z,3.17
2023-01-06T06:47:57.080Z,2.83
2023-01-06T06:53:02.010Z,3.83
2023-01-06T06:58:05.785Z,3.63
2023-01-06T07:03:09.077Z,3.07
2023-01-06T07:08:14.503Z,4.15
2023-01-06T07:13:18.092Z,3.70
2023-01-06T07:18:21.754Z,3.70
2023-01-06T07:23:26.852Z,4.60
2023-01-06T07:28:32.867Z,4.07
2023-01-06T07:33:36.290Z,4.47
2023-01-06T07:38:41.318Z,4.13
2023-01-06T07:43:44.823Z,5.55
2023-01-06T07:48:48.145Z,5.55
2023-01-06T07:53:52.853Z,6.53
2023-01-06T07:58:56.430Z,5.70
2023-01-06T08:03:59.890Z,5.93
2023-01-06T08:09:05.185Z,5.70
2023-01-06T08:14:08.656Z,5.57
2023-01-06T08:19:12.202Z,5.35
2023-01-06T08:24:17.199Z,5.28
2023-01-06T08:29:20.811Z,6.22
2023-01-06T08:34:24.282Z,6.43
2023-01-06T08:39:29.336Z,6.00
2023-01-06T08:44:32.933Z,5.70
2023-01-06T08:49:36.470Z,5.47
2023-01-06T08:54:41.354Z,6.60
2023-01-06T08:59:46.377Z,6.23
2023-01-06T09:04:50.515Z,5.83
2023-01-06T09:09:55.633Z,5.55
2023-01-06T09:14:59.300Z,5.60
2023-01-06T09:20:03.071Z,6.35
2023-01-06T09:25:09.669Z,6.10
2023-01-06T09:30:14.682Z,5.37
2023-01-06T09:35:18.292Z,5.67
2023-01-06T09:40:27.565Z,5.47
2023-01-06T09:45:40.269Z,4.60
2023-01-06T09:50:47.164Z,5.07
2023-01-06T09:55:58.164Z,4.67
2023-01-06T10:01:06.335Z,5.37
2023-01-06T10:06:27.420Z,5.97
2023-01-06T10:11:45.277Z,5.67
2023-01-06T10:17:03.513Z,5.60
2023-01-06T10:22:14.982Z,6.03
2023-01-06T10:27:27.973Z,5.60
2023-01-06T10:32:34.815Z,5.90
2023-01-06T10:37:41.224Z,6.57
2023-01-06T10:43:00.241Z,5.93
2023-01-06T10:48:06.020Z,5.50
2023-01-06T10:53:11.980Z,5.60
2023-01-06T10:58:23.336Z,6.20
2023-01-06T11:03:35.221Z,6.53
2023-01-06T11:08:41.254Z,5.53
2023-01-06T11:13:51.673Z,6.37
2023-01-06T11:18:57.716Z,6.20
2023-01-06T11:24:17.234Z,6.50
2023-01-06T11:29:28.325Z,6.27
2023-01-06T11:34:32.798Z,7.07
2023-01-06T11:39:38.606Z,6.30
2023-01-06T11:44:44.865Z,5.43
2023-01-06T11:49:50.961Z,6.60
2023-01-06T11:55:20.604Z,5.77
2023-01-06T12:00:36.036Z,5.87
2023-01-06T12:05:48.378Z,4.93
2023-01-06T12:10:57.851Z,6.33
2023-01-06T12:16:07.889Z,5.73
2023-01-06T12:21:17.222Z,5.60
2023-01-06T12:26:24.739Z,6.17
2023-01-06T12:31:45.423Z,6.43
2023-01-06T12:36:53.620Z,5.50
2023-01-06T12:41:59.982Z,6.60
2023-01-06T12:47:12.902Z,6.07
2023-01-06T12:52:20.806Z,7.72
2023-01-06T12:57:39.696Z,6.87
2023-01-06T13:02:55.943Z,7.10
2023-01-06T13:08:13.944Z,7.30
2023-01-06T13:13:39.737Z,6.87
2023-01-06T13:18:51.948Z,7.40
2023-01-06T13:24:11.280Z,6.43
2023-01-06T13:29:27.096Z,8.93
2023-01-06T13:34:53.360Z,10.13
2023-01-06T13:39:59.717Z,7.53
2023-01-06T13:45:04.639Z,7.87
2023-01-06T13:50:13.856Z,6.20
2023-01-06T13:55:28.667Z,9.60
2023-01-06T14:00:32.564Z,8.17
2023-01-06T14:05:57.934Z,6.43
2023-01-06T14:11:04.608Z,7.80
2023-01-06T14:16:11.670Z,6.87
2023-01-06T14:21:26.742Z,8.03
2023-01-06T14:26:48.145Z,6.83
2023-01-06T14:31:51.786Z,6.00
2023-01-06T14:36:57.480Z,9.60
2023-01-06T14:42:04.890Z,8.87
2023-01-06T14:47:16.593Z,7.57
2023-01-06T14:52:24.458Z,7.27
2023-01-06T14:57:36.375Z,9.20
2023-01-06T15:02:45.729Z,7.43
2023-01-06T15:08:02.346Z,7.37
2023-01-06T15:13:20.716Z,6.33
2023-01-06T15:18:24.394Z,9.63
2023-01-06T15:23:29.503Z,6.27
2023-01-06T15:28:34.876Z,5.60
2023-01-06T15:33:41.021Z,5.43
2023-01-06T15:38:46.335Z,5.97
2023-01-06T15:43:50.334Z,6.57
2023-01-06T15:48:54.131Z,3.83
2023-01-06T15:54:00.806Z,5.23
2023-01-06T15:59:04.492Z,4.53
2023-01-06T16:04:08.101Z,4.23
2023-01-06T16:09:31.036Z,4.03
2023-01-06T16:14:37.097Z,3.28
2023-01-06T16:19:47.899Z,4.00
2023-01-06T16:24:53.507Z,4.00
2023-01-06T16:30:22.533Z,3.80
2023-01-06T16:35:27.879Z,4.07
2023-01-06T16:40:32.920Z,3.20
2023-01-06T16:45:40.492Z,4.27
2023-01-06T16:50:45.817Z,4.13
2023-01-06T16:55:54.024Z,3.57
2023-01-06T17:01:03.789Z,4.40
2023-01-06T17:06:13.781Z,4.20
2023-01-06T17:11:20.717Z,4.07
2023-01-06T17:16:27.548Z,3.33
2023-01-06T17:21:36.811Z,3.47
2023-01-06T17:26:44.223Z,3.63
2023-01-06T17:31:50.464Z,2.50
2023-01-06T17:36:57.378Z,3.53
2023-01-06T17:42:24.793Z,4.20
2023-01-06T17:47:30.711Z,2.87
2023-01-06T17:52:38.058Z,3.33
2023-01-06T17:57:47.115Z,4.37
2023-01-06T18:02:56.363Z,4.00
2023-01-06T18:08:12.292Z,4.67
2023-01-06T18:13:20.076Z,5.07
2023-01-06T18:18:25.409Z,3.83
2023-01-06T18:23:29.736Z,4.13
2023-01-06T18:28:37.055Z,3.97
2023-01-06T18:33:40.515Z,3.83
2023-01-06T18:38:45.391Z,4.03
2023-01-06T18:43:50.187Z,3.50
2023-01-06T18:48:56.068Z,3.90
2023-01-06T18:53:59.616Z,3.63
2023-01-06T18:59:09.848Z,5.33
2023-01-06T19:04:22.434Z,4.27
2023-01-06T19:09:33.681Z,3.75
2023-01-06T19:14:41.702Z,2.97
2023-01-06T19:19:45.727Z,3.57
2023-01-06T19:24:52.705Z,3.80
2023-01-06T19:30:03.191Z,3.97
2023-01-06T19:35:15.989Z,3.80
2023-01-06T19:40:27.872Z,3.63
2023-01-06T19:45:35.047Z,3.80
2023-01-06T19:50:38.468Z,3.57
2023-01-06T19:55:42.827Z,3.50
2023-01-06T20:00:50.527Z,2.90
2023-01-06T20:05:54.052Z,3.83
2023-01-06T20:10:57.742Z,4.23
2023-01-06T20:16:02.797Z,3.17
2023-01-06T20:21:06.872Z,3.53
2023-01-06T20:26:10.353Z,4.80
2023-01-06T20:31:15.454Z,4.40
2023-01-06T20:36:19.069Z,5.77
2023-01-06T20:41:22.694Z,4.57
2023-01-06T20:46:27.672Z,3.13
2023-01-06T20:51:31.183Z,5.60
2023-01-06T20:56:34.787Z,3.40
2023-01-06T21:01:40.003Z,3.03
2023-01-06T21:06:43.667Z,3.63
2023-01-06T21:11:47.263Z,4.53
2023-01-06T21:16:52.353Z,2.83
2023-01-06T21:21:55.925Z,4.60
2023-01-06T21:26:59.616Z,3.83
2023-01-06T21:32:04.658Z,4.40
2023-01-06T21:37:08.567Z,3.87
2023-01-06T21:42:29.481Z,4.47
2023-01-06T21:47:34.528Z,5.40
2023-01-06T21:52:38.183Z,4.60
2023-01-06T21:57:42.038Z,4.63
2023-01-06T22:02:48.420Z,5.43
2023-01-06T22:07:54.690Z,4.00
2023-01-06T22:12:59.386Z,4.50
2023-01-06T22:18:04.733Z,4.03
2023-01-06T22:23:11.833Z,5.17
2023-01-06T22:28:15.406Z,4.87
2023-01-06T22:33:20.221Z,4.53
2023-01-06T22:38:24.032Z,4.80
2023-01-06T22:43:27.473Z,5.80
2023-01-06T22:48:32.193Z,5.43
2023-01-06T22:53:35.874Z,3.63
2023-01-06T22:58:41.782Z,5.67
2023-01-06T23:03:46.647Z,5.10
2023-01-06T23:08:59.793Z,3.87
2023-01-06T23:14:03.895Z,5.10
2023-01-06T23:19:11.999Z,5.33
2023-01-06T23:24:16.042Z,6.83
2023-01-06T23:29:19.720Z,4.13
2023-01-06T23:34:24.446Z,5.43
2023-01-06T23:39:28.070Z,3.17
2023-01-06T23:44:31.516Z,5.10
2023-01-06T23:49:36.464Z,5.77
2023-01-06T23:54:39.756Z,5.10
2023-01-06T23:59:45.004Z,4.17
